sensor_id;sensor_type;location;lat;lon;timestamp;P1;durP1;ratioP1;P2;durP2;ratioP2
9761;SDS011;4920;49.594;11.022;2022-12-28T00:00:14;17.17;;;10.37;;
9761;SDS011;4920;49.594;11.022;2022-12-28T00:02:43;19.13;;;10.80;;
9761;SDS011;4920;49.594;11.022;2022-12-28T00:05:11;14.70;;;8.90;;
9761;SDS011;4920;49.594;11.022;2022-12-28T00:07:40;13.83;;;8.30;;
9761;SDS011;4920;49.594;11.022;2022-12-28T00:10:09;16.77;;;8.90;;
9761;SDS011;4920;49.594;11.022;2022-12-28T00:12:37;16.33;;;8.20;;
9761;SDS011;4920;49.594;11.022;2022-12-28T00:15:08;11.43;;;7.33;;
9761;SDS011;4920;49.594;11.022;2022-12-28T00:17:37;11.70;;;7.03;;
9761;SDS011;4920;49.594;11.022;2022-12-28T00:20:06;13.83;;;7.13;;
9761;SDS011;4920;49.594;11.022;2022-12-28T00:22:35;11.40;;;6.40;;
9761;SDS011;4920;49.594;11.022;2022-12-28T00:25:04;12.27;;;7.20;;
9761;SDS011;4920;49.594;11.022;2022-12-28T00:27:34;13.47;;;7.37;;
9761;SDS011;4920;49.594;11.022;2022-12-28T00:30:03;11.43;;;7.23;;
9761;SDS011;4920;49.594;11.022;2022-12-28T00:32:34;15.00;;;7.83;;
9761;SDS011;4920;49.594;11.022;2022-12-28T00:35:03;13.07;;;8.10;;
9761;SDS011;4920;49.594;11.022;2022-12-28T00:37:32;13.27;;;7.83;;
9761;SDS011;4920;49.594;11.022;2022-12-28T00:40:03;11.77;;;7.67;;
9761;SDS011;4920;49.594;11.022;2022-12-28T00:42:33;16.73;;;7.70;;
9761;SDS011;4920;49.594;11.022;2022-12-28T00:45:02;17.80;;;8.43;;
9761;SDS011;4920;49.594;11.022;2022-12-28T00:47:31;14.87;;;7.67;;
9761;SDS011;4920;49.594;11.022;2022-12-28T00:50:01;15.13;;;8.57;;
9761;SDS011;4920;49.594;11.022;2022-12-28T00:52:30;15.03;;;7.97;;
9761;SDS011;4920;49.594;11.022;2022-12-28T00:54:59;12.27;;;7.37;;
9761;SDS011;4920;49.594;11.022;2022-12-28T00:57:29;11.53;;;7.00;;
9761;SDS011;4920;49.594;11.022;2022-12-28T00:59:59;11.10;;;7.07;;
9761;SDS011;4920;49.594;11.022;2022-12-28T01:02:28;9.10;;;6.87;;
9761;SDS011;4920;49.594;11.022;2022-12-28T01:04:56;11.97;;;6.87;;
9761;SDS011;4920;49.594;11.022;2022-12-28T01:07:27;9.17;;;5.93;;
9761;SDS011;4920;49.594;11.022;2022-12-28T01:09:55;10.13;;;6.20;;
9761;SDS011;4920;49.594;11.022;2022-12-28T01:12:24;12.57;;;6.43;;
9761;SDS011;4920;49.594;11.022;2022-12-28T01:14:57;10.67;;;6.37;;
9761;SDS011;4920;49.594;11.022;2022-12-28T01:17:25;9.53;;;6.50;;
9761;SDS011;4920;49.594;11.022;2022-12-28T01:19:55;10.57;;;6.40;;
9761;SDS011;4920;49.594;11.022;2022-12-28T01:22:24;10.80;;;6.07;;
9761;SDS011;4920;49.594;11.022;2022-12-28T01:24:54;13.07;;;6.57;;
9761;SDS011;4920;49.594;11.022;2022-12-28T01:27:23;12.60;;;6.40;;
9761;SDS011;4920;49.594;11.022;2022-12-28T01:29:52;8.17;;;6.17;;
9761;SDS011;4920;49.594;11.022;2022-12-28T01:32:21;11.57;;;6.37;;
9761;SDS011;4920;49.594;11.022;2022-12-28T01:34:50;11.90;;;7.03;;
9761;SDS011;4920;49.594;11.022;2022-12-28T01:37:18;11.83;;;6.60;;
9761;SDS011;4920;49.594;11.022;2022-12-28T01:39:47;10.43;;;6.80;;
9761;SDS011;4920;49.594;11.022;2022-12-28T01:42:17;11.77;;;6.90;;
9761;SDS011;4920;49.594;11.022;2022-12-28T01:44:47;10.60;;;6.80;;
9761;SDS011;4920;49.594;11.022;2022-12-28T01:47:18;13.43;;;7.10;;
9761;SDS011;4920;49.594;11.022;2022-12-28T01:49:53;12.77;;;7.57;;
9761;SDS011;4920;49.594;11.022;2022-12-28T01:52:27;11.57;;;6.63;;
9761;SDS011;4920;49.594;11.022;2022-12-28T01:55:02;10.63;;;7.00;;
9761;SDS011;4920;49.594;11.022;2022-12-28T01:57:38;14.07;;;7.23;;
9761;SDS011;4920;49.594;11.022;2022-12-28T02:00:11;10.33;;;7.00;;
9761;SDS011;4920;49.594;11.022;2022-12-28T02:02:45;11.37;;;7.17;;
9761;SDS011;4920;49.594;11.022;2022-12-28T02:05:17;12.97;;;7.70;;
9761;SDS011;4920;49.594;11.022;2022-12-28T02:07:50;13.00;;;7.60;;
9761;SDS011;4920;49.594;11.022;2022-12-28T02:10:22;12.93;;;8.03;;
9761;SDS011;4920;49.594;11.022;2022-12-28T02:13:12;14.00;;;8.00;;
9761;SDS011;4920;49.594;11.022;2022-12-28T02:15:42;11.60;;;7.50;;
9761;SDS011;4920;49.594;11.022;2022-12-28T02:18:12;13.30;;;7.60;;
9761;SDS011;4920;49.594;11.022;2022-12-28T02:20:44;14.43;;;8.30;;
9761;SDS011;4920;49.594;11.022;2022-12-28T02:23:49;13.57;;;8.33;;
9761;SDS011;4920;49.594;11.022;2022-12-28T02:29:43;13.93;;;8.43;;
9761;SDS011;4920;49.594;11.022;2022-12-28T02:32:23;14.17;;;8.90;;
9761;SDS011;4920;49.594;11.022;2022-12-28T02:35:00;15.40;;;9.00;;
9761;SDS011;4920;49.594;11.022;2022-12-28T02:37:34;18.43;;;9.50;;
9761;SDS011;4920;49.594;11.022;2022-12-28T02:40:07;15.17;;;9.40;;
9761;SDS011;4920;49.594;11.022;2022-12-28T02:42:40;14.97;;;9.60;;
9761;SDS011;4920;49.594;11.022;2022-12-28T02:48:03;20.50;;;9.53;;
9761;SDS011;4920;49.594;11.022;2022-12-28T02:50:57;15.67;;;10.50;;
9761;SDS011;4920;49.594;11.022;2022-12-28T02:53:36;17.20;;;10.93;;
9761;SDS011;4920;49.594;11.022;2022-12-28T02:56:26;17.23;;;11.47;;
9761;SDS011;4920;49.594;11.022;2022-12-28T02:59:10;19.07;;;10.63;;
9761;SDS011;4920;49.594;11.022;2022-12-28T03:02:10;19.17;;;11.47;;
9761;SDS011;4920;49.594;11.022;2022-12-28T03:04:56;18.00;;;11.07;;
9761;SDS011;4920;49.594;11.022;2022-12-28T03:07:34;20.30;;;11.97;;
9761;SDS011;4920;49.594;11.022;2022-12-28T03:10:27;19.00;;;11.50;;
9761;SDS011;4920;49.594;11.022;2022-12-28T03:13:02;20.93;;;11.07;;
9761;SDS011;4920;49.594;11.022;2022-12-28T03:15:56;20.60;;;11.17;;
9761;SDS011;4920;49.594;11.022;2022-12-28T03:18:31;18.40;;;11.20;;
9761;SDS011;4920;49.594;11.022;2022-12-28T03:21:27;17.07;;;11.30;;
9761;SDS011;4920;49.594;11.022;2022-12-28T03:24:15;18.23;;;11.03;;
9761;SDS011;4920;49.594;11.022;2022-12-28T03:27:04;18.70;;;11.63;;
9761;SDS011;4920;49.594;11.022;2022-12-28T03:29:57;19.37;;;11.57;;
9761;SDS011;4920;49.594;11.022;2022-12-28T03:32:46;17.10;;;11.27;;
9761;SDS011;4920;49.594;11.022;2022-12-28T03:35:16;19.10;;;12.50;;
9761;SDS011;4920;49.594;11.022;2022-12-28T03:37:51;19.37;;;13.23;;
9761;SDS011;4920;49.594;11.022;2022-12-28T03:40:26;18.70;;;12.33;;
9761;SDS011;4920;49.594;11.022;2022-12-28T03:43:02;19.33;;;12.23;;
9761;SDS011;4920;49.594;11.022;2022-12-28T03:46:01;18.43;;;12.53;;
9761;SDS011;4920;49.594;11.022;2022-12-28T03:48:38;19.73;;;12.70;;
9761;SDS011;4920;49.594;11.022;2022-12-28T03:51:08;20.13;;;12.63;;
9761;SDS011;4920;49.594;11.022;2022-12-28T03:53:40;19.97;;;13.00;;
9761;SDS011;4920;49.594;11.022;2022-12-28T03:56:13;19.50;;;12.50;;
9761;SDS011;4920;49.594;11.022;2022-12-28T03:58:44;18.07;;;12.47;;
9761;SDS011;4920;49.594;11.022;2022-12-28T04:01:15;20.70;;;12.70;;
9761;SDS011;4920;49.594;11.022;2022-12-28T04:03:44;17.83;;;12.47;;
9761;SDS011;4920;49.594;11.022;2022-12-28T04:06:14;18.57;;;12.60;;
9761;SDS011;4920;49.594;11.022;2022-12-28T04:08:46;18.43;;;12.57;;
9761;SDS011;4920;49.594;11.022;2022-12-28T04:11:15;18.97;;;11.87;;
9761;SDS011;4920;49.594;11.022;2022-12-28T04:13:48;20.50;;;12.60;;
9761;SDS011;4920;49.594;11.022;2022-12-28T04:16:17;17.70;;;12.37;;
9761;SDS011;4920;49.594;11.022;2022-12-28T04:18:46;21.57;;;13.27;;
9761;SDS011;4920;49.594;11.022;2022-12-28T04:21:14;19.30;;;12.77;;
9761;SDS011;4920;49.594;11.022;2022-12-28T04:23:45;19.57;;;13.00;;
9761;SDS011;4920;49.594;11.022;2022-12-28T04:26:16;19.70;;;12.60;;
9761;SDS011;4920;49.594;11.022;2022-12-28T04:28:47;21.93;;;13.33;;
9761;SDS011;4920;49.594;11.022;2022-12-28T04:31:34;18.13;;;12.30;;
9761;SDS011;4920;49.594;11.022;2022-12-28T04:34:06;18.20;;;12.47;;
9761;SDS011;4920;49.594;11.022;2022-12-28T04:36:38;19.63;;;12.90;;
9761;SDS011;4920;49.594;11.022;2022-12-28T04:39:14;20.10;;;13.07;;
9761;SDS011;4920;49.594;11.022;2022-12-28T04:41:42;18.27;;;12.43;;
9761;SDS011;4920;49.594;11.022;2022-12-28T04:44:11;18.03;;;12.67;;
9761;SDS011;4920;49.594;11.022;2022-12-28T04:46:39;18.00;;;12.47;;
9761;SDS011;4920;49.594;11.022;2022-12-28T04:49:08;17.27;;;12.47;;
9761;SDS011;4920;49.594;11.022;2022-12-28T04:51:36;19.97;;;12.67;;
9761;SDS011;4920;49.594;11.022;2022-12-28T04:54:05;18.57;;;12.13;;
9761;SDS011;4920;49.594;11.022;2022-12-28T04:56:35;20.57;;;12.63;;
9761;SDS011;4920;49.594;11.022;2022-12-28T04:59:04;17.90;;;12.10;;
9761;SDS011;4920;49.594;11.022;2022-12-28T05:01:32;21.40;;;12.67;;
9761;SDS011;4920;49.594;11.022;2022-12-28T05:04:01;17.63;;;11.87;;
9761;SDS011;4920;49.594;11.022;2022-12-28T05:06:30;15.97;;;11.53;;
9761;SDS011;4920;49.594;11.022;2022-12-28T05:08:59;18.17;;;11.60;;
9761;SDS011;4920;49.594;11.022;2022-12-28T05:11:28;17.63;;;11.67;;
9761;SDS011;4920;49.594;11.022;2022-12-28T05:13:58;18.07;;;11.33;;
9761;SDS011;4920;49.594;11.022;2022-12-28T05:16:27;15.63;;;11.30;;
9761;SDS011;4920;49.594;11.022;2022-12-28T05:18:56;15.67;;;10.83;;
9761;SDS011;4920;49.594;11.022;2022-12-28T05:21:25;16.27;;;11.97;;
9761;SDS011;4920;49.594;11.022;2022-12-28T05:23:55;17.30;;;11.77;;
9761;SDS011;4920;49.594;11.022;2022-12-28T05:26:24;17.03;;;11.43;;
9761;SDS011;4920;49.594;11.022;2022-12-28T05:28:54;16.93;;;11.07;;
9761;SDS011;4920;49.594;11.022;2022-12-28T05:31:26;16.67;;;11.20;;
9761;SDS011;4920;49.594;11.022;2022-12-28T05:33:55;16.40;;;11.80;;
9761;SDS011;4920;49.594;11.022;2022-12-28T05:36:24;15.50;;;11.40;;
9761;SDS011;4920;49.594;11.022;2022-12-28T05:38:55;13.70;;;10.43;;
9761;SDS011;4920;49.594;11.022;2022-12-28T05:41:24;15.87;;;10.80;;
9761;SDS011;4920;49.594;11.022;2022-12-28T05:43:54;16.20;;;10.53;;
9761;SDS011;4920;49.594;11.022;2022-12-28T05:46:23;15.23;;;10.63;;
9761;SDS011;4920;49.594;11.022;2022-12-28T05:48:55;14.50;;;10.40;;
9761;SDS011;4920;49.594;11.022;2022-12-28T05:51:25;13.93;;;10.43;;
9761;SDS011;4920;49.594;11.022;2022-12-28T05:53:55;14.83;;;10.43;;
9761;SDS011;4920;49.594;11.022;2022-12-28T05:56:26;15.37;;;10.50;;
9761;SDS011;4920;49.594;11.022;2022-12-28T05:58:56;14.60;;;11.13;;
9761;SDS011;4920;49.594;11.022;2022-12-28T06:01:28;16.97;;;11.13;;
9761;SDS011;4920;49.594;11.022;2022-12-28T06:03:59;14.10;;;9.83;;
9761;SDS011;4920;49.594;11.022;2022-12-28T06:06:29;14.07;;;10.20;;
9761;SDS011;4920;49.594;11.022;2022-12-28T06:08:58;13.60;;;10.10;;
9761;SDS011;4920;49.594;11.022;2022-12-28T06:11:27;14.80;;;9.90;;
9761;SDS011;4920;49.594;11.022;2022-12-28T06:13:57;14.43;;;10.17;;
9761;SDS011;4920;49.594;11.022;2022-12-28T06:16:28;15.37;;;10.63;;
9761;SDS011;4920;49.594;11.022;2022-12-28T06:18:58;14.47;;;10.03;;
9761;SDS011;4920;49.594;11.022;2022-12-28T06:21:27;14.40;;;10.03;;
9761;SDS011;4920;49.594;11.022;2022-12-28T06:23:57;14.67;;;9.77;;
9761;SDS011;4920;49.594;11.022;2022-12-28T06:26:27;14.63;;;10.60;;
9761;SDS011;4920;49.594;11.022;2022-12-28T06:28:58;13.83;;;10.10;;
9761;SDS011;4920;49.594;11.022;2022-12-28T06:31:29;15.17;;;10.80;;
9761;SDS011;4920;49.594;11.022;2022-12-28T06:33:59;17.77;;;10.57;;
9761;SDS011;4920;49.594;11.022;2022-12-28T06:36:30;23.80;;;10.27;;
9761;SDS011;4920;49.594;11.022;2022-12-28T06:39:00;19.03;;;10.97;;
9761;SDS011;4920;49.594;11.022;2022-12-28T06:41:30;14.97;;;9.97;;
9761;SDS011;4920;49.594;11.022;2022-12-28T06:43:59;14.23;;;10.10;;
9761;SDS011;4920;49.594;11.022;2022-12-28T06:46:30;17.13;;;11.27;;
9761;SDS011;4920;49.594;11.022;2022-12-28T06:48:58;14.30;;;10.50;;
9761;SDS011;4920;49.594;11.022;2022-12-28T06:51:28;14.23;;;10.07;;
9761;SDS011;4920;49.594;11.022;2022-12-28T06:53:58;14.37;;;10.10;;
9761;SDS011;4920;49.594;11.022;2022-12-28T06:56:27;13.33;;;9.93;;
9761;SDS011;4920;49.594;11.022;2022-12-28T06:58:57;13.87;;;10.03;;
9761;SDS011;4920;49.594;11.022;2022-12-28T07:01:31;14.10;;;9.83;;
9761;SDS011;4920;49.594;11.022;2022-12-28T07:04:02;16.70;;;9.90;;
9761;SDS011;4920;49.594;11.022;2022-12-28T07:06:33;14.10;;;10.27;;
9761;SDS011;4920;49.594;11.022;2022-12-28T07:09:04;14.07;;;10.17;;
9761;SDS011;4920;49.594;11.022;2022-12-28T07:11:34;14.73;;;10.43;;
9761;SDS011;4920;49.594;11.022;2022-12-28T07:14:04;14.20;;;9.87;;
9761;SDS011;4920;49.594;11.022;2022-12-28T07:16:34;15.17;;;10.00;;
9761;SDS011;4920;49.594;11.022;2022-12-28T07:19:01;14.03;;;10.07;;
9761;SDS011;4920;49.594;11.022;2022-12-28T07:21:31;14.23;;;10.10;;
9761;SDS011;4920;49.594;11.022;2022-12-28T07:24:02;13.30;;;9.90;;
9761;SDS011;4920;49.594;11.022;2022-12-28T07:26:32;15.20;;;10.17;;
9761;SDS011;4920;49.594;11.022;2022-12-28T07:29:03;13.37;;;10.10;;
9761;SDS011;4920;49.594;11.022;2022-12-28T07:31:36;14.10;;;10.10;;
9761;SDS011;4920;49.594;11.022;2022-12-28T07:34:11;14.20;;;9.60;;
9761;SDS011;4920;49.594;11.022;2022-12-28T07:36:41;13.77;;;9.93;;
9761;SDS011;4920;49.594;11.022;2022-12-28T07:39:10;12.87;;;9.10;;
9761;SDS011;4920;49.594;11.022;2022-12-28T07:41:39;14.40;;;10.37;;
9761;SDS011;4920;49.594;11.022;2022-12-28T07:44:08;14.83;;;9.83;;
9761;SDS011;4920;49.594;11.022;2022-12-28T07:46:38;12.90;;;9.97;;
9761;SDS011;4920;49.594;11.022;2022-12-28T07:49:07;13.27;;;9.63;;
9761;SDS011;4920;49.594;11.022;2022-12-28T07:51:36;13.90;;;9.67;;
9761;SDS011;4920;49.594;11.022;2022-12-28T07:54:06;13.93;;;9.87;;
9761;SDS011;4920;49.594;11.022;2022-12-28T07:56:34;13.10;;;10.20;;
9761;SDS011;4920;49.594;11.022;2022-12-28T07:59:02;13.00;;;9.73;;
9761;SDS011;4920;49.594;11.022;2022-12-28T08:01:33;13.50;;;10.30;;
9761;SDS011;4920;49.594;11.022;2022-12-28T08:04:05;14.43;;;9.47;;
9761;SDS011;4920;49.594;11.022;2022-12-28T08:06:37;14.00;;;10.13;;
9761;SDS011;4920;49.594;11.022;2022-12-28T08:09:08;15.53;;;10.53;;
9761;SDS011;4920;49.594;11.022;2022-12-28T08:11:39;16.13;;;11.00;;
9761;SDS011;4920;49.594;11.022;2022-12-28T08:14:09;15.87;;;10.67;;
9761;SDS011;4920;49.594;11.022;2022-12-28T08:16:39;15.03;;;10.33;;
9761;SDS011;4920;49.594;11.022;2022-12-28T08:19:10;16.10;;;10.90;;
9761;SDS011;4920;49.594;11.022;2022-12-28T08:21:40;15.43;;;11.37;;
9761;SDS011;4920;49.594;11.022;2022-12-28T08:24:12;15.30;;;11.17;;
9761;SDS011;4920;49.594;11.022;2022-12-28T08:26:42;13.97;;;11.23;;
9761;SDS011;4920;49.594;11.022;2022-12-28T08:29:13;16.63;;;11.43;;
9761;SDS011;4920;49.594;11.022;2022-12-28T08:31:44;15.50;;;10.60;;
9761;SDS011;4920;49.594;11.022;2022-12-28T08:34:16;14.27;;;10.30;;
9761;SDS011;4920;49.594;11.022;2022-12-28T08:36:46;16.70;;;11.40;;
9761;SDS011;4920;49.594;11.022;2022-12-28T08:39:15;15.30;;;10.90;;
9761;SDS011;4920;49.594;11.022;2022-12-28T08:41:43;16.07;;;10.63;;
9761;SDS011;4920;49.594;11.022;2022-12-28T08:44:12;14.27;;;10.50;;
9761;SDS011;4920;49.594;11.022;2022-12-28T08:46:41;13.63;;;10.67;;
9761;SDS011;4920;49.594;11.022;2022-12-28T08:49:09;16.00;;;10.87;;
9761;SDS011;4920;49.594;11.022;2022-12-28T08:51:40;15.93;;;10.70;;
9761;SDS011;4920;49.594;11.022;2022-12-28T08:54:09;14.00;;;10.17;;
9761;SDS011;4920;49.594;11.022;2022-12-28T08:56:41;15.13;;;10.80;;
9761;SDS011;4920;49.594;11.022;2022-12-28T08:59:11;14.13;;;10.50;;
9761;SDS011;4920;49.594;11.022;2022-12-28T09:01:41;15.90;;;11.03;;
9761;SDS011;4920;49.594;11.022;2022-12-28T09:04:11;13.43;;;10.20;;
9761;SDS011;4920;49.594;11.022;2022-12-28T09:06:43;14.60;;;10.47;;
9761;SDS011;4920;49.594;11.022;2022-12-28T09:09:12;13.77;;;9.90;;
9761;SDS011;4920;49.594;11.022;2022-12-28T09:11:43;14.13;;;9.87;;
9761;SDS011;4920;49.594;11.022;2022-12-28T09:14:12;12.53;;;9.97;;
9761;SDS011;4920;49.594;11.022;2022-12-28T09:16:49;13.70;;;9.83;;
9761;SDS011;4920;49.594;11.022;2022-12-28T09:19:18;13.40;;;9.50;;
9761;SDS011;4920;49.594;11.022;2022-12-28T09:21:49;13.10;;;9.57;;
9761;SDS011;4920;49.594;11.022;2022-12-28T09:24:21;13.40;;;9.47;;
9761;SDS011;4920;49.594;11.022;2022-12-28T09:26:50;14.00;;;9.80;;
9761;SDS011;4920;49.594;11.022;2022-12-28T09:29:20;12.90;;;9.17;;
9761;SDS011;4920;49.594;11.022;2022-12-28T09:31:49;12.50;;;9.07;;
9761;SDS011;4920;49.594;11.022;2022-12-28T09:34:17;14.40;;;9.00;;
9761;SDS011;4920;49.594;11.022;2022-12-28T09:37:05;10.50;;;8.60;;
9761;SDS011;4920;49.594;11.022;2022-12-28T09:39:34;11.13;;;8.13;;
9761;SDS011;4920;49.594;11.022;2022-12-28T09:42:04;11.27;;;8.63;;
9761;SDS011;4920;49.594;11.022;2022-12-28T09:44:48;11.33;;;8.30;;
9761;SDS011;4920;49.594;11.022;2022-12-28T09:47:27;11.63;;;8.83;;
9761;SDS011;4920;49.594;11.022;2022-12-28T09:50:10;11.63;;;8.47;;
9761;SDS011;4920;49.594;11.022;2022-12-28T09:53:10;11.33;;;7.90;;
9761;SDS011;4920;49.594;11.022;2022-12-28T09:55:54;10.97;;;8.07;;
9761;SDS011;4920;49.594;11.022;2022-12-28T09:58:27;10.03;;;7.43;;
9761;SDS011;4920;49.594;11.022;2022-12-28T10:00:58;11.97;;;7.40;;
9761;SDS011;4920;49.594;11.022;2022-12-28T10:03:31;9.57;;;7.70;;
9761;SDS011;4920;49.594;11.022;2022-12-28T10:06:03;10.57;;;7.70;;
9761;SDS011;4920;49.594;11.022;2022-12-28T10:08:40;9.93;;;7.50;;
9761;SDS011;4920;49.594;11.022;2022-12-28T10:11:12;10.07;;;7.73;;
9761;SDS011;4920;49.594;11.022;2022-12-28T10:13:43;10.97;;;7.70;;
9761;SDS011;4920;49.594;11.022;2022-12-28T10:16:22;10.27;;;7.50;;
9761;SDS011;4920;49.594;11.022;2022-12-28T10:18:52;12.20;;;8.10;;
9761;SDS011;4920;49.594;11.022;2022-12-28T10:21:22;11.00;;;7.40;;
9761;SDS011;4920;49.594;11.022;2022-12-28T10:24:00;12.13;;;8.00;;
9761;SDS011;4920;49.594;11.022;2022-12-28T10:26:52;12.27;;;8.27;;
9761;SDS011;4920;49.594;11.022;2022-12-28T10:29:23;11.53;;;8.17;;
9761;SDS011;4920;49.594;11.022;2022-12-28T10:31:57;9.00;;;7.40;;
9761;SDS011;4920;49.594;11.022;2022-12-28T10:34:28;10.83;;;7.70;;
9761;SDS011;4920;49.594;11.022;2022-12-28T10:37:03;8.60;;;7.30;;
9761;SDS011;4920;49.594;11.022;2022-12-28T10:39:47;9.43;;;7.37;;
9761;SDS011;4920;49.594;11.022;2022-12-28T10:42:19;10.87;;;6.90;;
9761;SDS011;4920;49.594;11.022;2022-12-28T10:44:51;10.43;;;6.97;;
9761;SDS011;4920;49.594;11.022;2022-12-28T10:47:26;10.07;;;7.10;;
9761;SDS011;4920;49.594;11.022;2022-12-28T10:49:57;9.87;;;6.77;;
9761;SDS011;4920;49.594;11.022;2022-12-28T10:52:54;11.77;;;7.87;;
9761;SDS011;4920;49.594;11.022;2022-12-28T10:55:29;10.27;;;7.27;;
9761;SDS011;4920;49.594;11.022;2022-12-28T10:58:15;7.73;;;6.23;;
9761;SDS011;4920;49.594;11.022;2022-12-28T11:01:00;11.40;;;7.00;;
9761;SDS011;4920;49.594;11.022;2022-12-28T11:03:32;9.53;;;6.80;;
9761;SDS011;4920;49.594;11.022;2022-12-28T11:06:09;8.67;;;6.80;;
9761;SDS011;4920;49.594;11.022;2022-12-28T11:08:41;9.73;;;7.00;;
9761;SDS011;4920;49.594;11.022;2022-12-28T11:11:21;8.33;;;6.80;;
9761;SDS011;4920;49.594;11.022;2022-12-28T11:13:52;8.20;;;6.40;;
9761;SDS011;4920;49.594;11.022;2022-12-28T11:16:23;9.37;;;6.33;;
9761;SDS011;4920;49.594;11.022;2022-12-28T11:18:52;9.20;;;6.40;;
9761;SDS011;4920;49.594;11.022;2022-12-28T11:21:21;8.03;;;6.40;;
9761;SDS011;4920;49.594;11.022;2022-12-28T11:23:50;9.43;;;5.90;;
9761;SDS011;4920;49.594;11.022;2022-12-28T11:26:19;7.53;;;5.80;;
9761;SDS011;4920;49.594;11.022;2022-12-28T11:28:50;8.27;;;6.00;;
9761;SDS011;4920;49.594;11.022;2022-12-28T11:31:21;9.13;;;5.73;;
9761;SDS011;4920;49.594;11.022;2022-12-28T11:33:55;8.10;;;6.07;;
9761;SDS011;4920;49.594;11.022;2022-12-28T11:36:27;6.73;;;5.20;;
9761;SDS011;4920;49.594;11.022;2022-12-28T11:38:58;7.87;;;5.57;;
9761;SDS011;4920;49.594;11.022;2022-12-28T11:45:19;4.80;;;4.30;;
9761;SDS011;4920;49.594;11.022;2022-12-28T11:48:45;7.43;;;4.67;;
9761;SDS011;4920;49.594;11.022;2022-12-28T11:51:18;7.07;;;4.93;;
9761;SDS011;4920;49.594;11.022;2022-12-28T11:53:48;6.40;;;4.40;;
9761;SDS011;4920;49.594;11.022;2022-12-28T11:56:19;5.93;;;4.10;;
9761;SDS011;4920;49.594;11.022;2022-12-28T11:59:02;4.90;;;3.80;;
9761;SDS011;4920;49.594;11.022;2022-12-28T12:01:48;5.63;;;3.90;;
9761;SDS011;4920;49.594;11.022;2022-12-28T12:13:02;4.10;;;3.20;;
9761;SDS011;4920;49.594;11.022;2022-12-28T12:15:49;4.33;;;3.30;;
9761;SDS011;4920;49.594;11.022;2022-12-28T12:18:19;4.30;;;2.87;;
9761;SDS011;4920;49.594;11.022;2022-12-28T12:20:53;5.03;;;3.20;;
9761;SDS011;4920;49.594;11.022;2022-12-28T12:23:37;4.17;;;3.00;;
9761;SDS011;4920;49.594;11.022;2022-12-28T12:26:15;4.30;;;3.47;;
9761;SDS011;4920;49.594;11.022;2022-12-28T12:28:53;4.73;;;3.20;;
9761;SDS011;4920;49.594;11.022;2022-12-28T12:31:27;3.77;;;2.83;;
9761;SDS011;4920;49.594;11.022;2022-12-28T12:34:01;5.23;;;2.97;;
9761;SDS011;4920;49.594;11.022;2022-12-28T12:40:02;5.27;;;2.93;;
9761;SDS011;4920;49.594;11.022;2022-12-28T12:42:44;4.40;;;3.23;;
9761;SDS011;4920;49.594;11.022;2022-12-28T12:45:24;4.60;;;3.07;;
9761;SDS011;4920;49.594;11.022;2022-12-28T12:48:02;4.33;;;3.33;;
9761;SDS011;4920;49.594;11.022;2022-12-28T12:50:52;4.23;;;3.10;;
9761;SDS011;4920;49.594;11.022;2022-12-28T12:53:42;5.30;;;3.70;;
9761;SDS011;4920;49.594;11.022;2022-12-28T12:56:31;6.13;;;3.90;;
9761;SDS011;4920;49.594;11.022;2022-12-28T12:59:13;5.10;;;3.00;;
9761;SDS011;4920;49.594;11.022;2022-12-28T13:01:53;4.53;;;3.00;;
9761;SDS011;4920;49.594;11.022;2022-12-28T13:04:30;4.50;;;2.90;;
9761;SDS011;4920;49.594;11.022;2022-12-28T13:07:02;4.93;;;3.23;;
9761;SDS011;4920;49.594;11.022;2022-12-28T13:09:34;3.93;;;3.20;;
9761;SDS011;4920;49.594;11.022;2022-12-28T13:12:07;4.63;;;3.30;;
9761;SDS011;4920;49.594;11.022;2022-12-28T13:14:42;5.50;;;3.00;;
9761;SDS011;4920;49.594;11.022;2022-12-28T13:17:12;3.43;;;3.03;;
9761;SDS011;4920;49.594;11.022;2022-12-28T13:19:44;4.47;;;3.30;;
9761;SDS011;4920;49.594;11.022;2022-12-28T13:22:26;5.57;;;2.90;;
9761;SDS011;4920;49.594;11.022;2022-12-28T13:24:57;3.97;;;2.73;;
9761;SDS011;4920;49.594;11.022;2022-12-28T13:27:26;5.63;;;3.70;;
9761;SDS011;4920;49.594;11.022;2022-12-28T13:29:58;7.47;;;4.60;;
9761;SDS011;4920;49.594;11.022;2022-12-28T13:32:29;4.57;;;3.23;;
9761;SDS011;4920;49.594;11.022;2022-12-28T13:35:14;5.43;;;3.43;;
9761;SDS011;4920;49.594;11.022;2022-12-28T13:37:57;5.43;;;3.00;;
9761;SDS011;4920;49.594;11.022;2022-12-28T13:40:30;6.60;;;3.60;;
9761;SDS011;4920;49.594;11.022;2022-12-28T13:43:03;3.77;;;3.03;;
9761;SDS011;4920;49.594;11.022;2022-12-28T13:46:01;6.53;;;3.23;;
9761;SDS011;4920;49.594;11.022;2022-12-28T13:48:34;5.17;;;3.50;;
9761;SDS011;4920;49.594;11.022;2022-12-28T13:51:07;3.43;;;2.90;;
9761;SDS011;4920;49.594;11.022;2022-12-28T13:53:37;4.90;;;3.30;;
9761;SDS011;4920;49.594;11.022;2022-12-28T13:56:08;4.53;;;3.33;;
9761;SDS011;4920;49.594;11.022;2022-12-28T13:58:41;3.57;;;3.20;;
9761;SDS011;4920;49.594;11.022;2022-12-28T14:01:15;6.20;;;3.40;;
9761;SDS011;4920;49.594;11.022;2022-12-28T14:03:46;3.87;;;3.27;;
9761;SDS011;4920;49.594;11.022;2022-12-28T14:06:16;4.63;;;3.70;;
9761;SDS011;4920;49.594;11.022;2022-12-28T14:08:46;4.73;;;3.20;;
9761;SDS011;4920;49.594;11.022;2022-12-28T14:11:17;5.03;;;3.50;;
9761;SDS011;4920;49.594;11.022;2022-12-28T14:13:46;5.77;;;4.27;;
9761;SDS011;4920;49.594;11.022;2022-12-28T14:16:15;4.93;;;3.50;;
9761;SDS011;4920;49.594;11.022;2022-12-28T14:18:45;4.37;;;3.20;;
9761;SDS011;4920;49.594;11.022;2022-12-28T14:21:14;4.53;;;3.17;;
9761;SDS011;4920;49.594;11.022;2022-12-28T14:23:43;4.20;;;3.10;;
9761;SDS011;4920;49.594;11.022;2022-12-28T14:26:18;4.67;;;3.30;;
9761;SDS011;4920;49.594;11.022;2022-12-28T14:28:49;4.97;;;3.50;;
9761;SDS011;4920;49.594;11.022;2022-12-28T14:31:20;5.93;;;3.53;;
9761;SDS011;4920;49.594;11.022;2022-12-28T14:33:54;4.70;;;3.50;;
9761;SDS011;4920;49.594;11.022;2022-12-28T14:36:25;4.10;;;3.03;;
9761;SDS011;4920;49.594;11.022;2022-12-28T14:38:57;6.40;;;3.30;;
9761;SDS011;4920;49.594;11.022;2022-12-28T14:41:33;4.93;;;3.20;;
9761;SDS011;4920;49.594;11.022;2022-12-28T14:44:12;5.27;;;3.40;;
9761;SDS011;4920;49.594;11.022;2022-12-28T14:46:43;6.03;;;3.43;;
9761;SDS011;4920;49.594;11.022;2022-12-28T14:55:17;4.27;;;3.40;;
9761;SDS011;4920;49.594;11.022;2022-12-28T14:57:50;4.63;;;3.27;;
9761;SDS011;4920;49.594;11.022;2022-12-28T15:00:22;4.33;;;3.07;;
9761;SDS011;4920;49.594;11.022;2022-12-28T15:02:53;5.50;;;3.30;;
9761;SDS011;4920;49.594;11.022;2022-12-28T15:05:33;5.50;;;3.33;;
9761;SDS011;4920;49.594;11.022;2022-12-28T15:08:03;4.40;;;3.30;;
9761;SDS011;4920;49.594;11.022;2022-12-28T15:10:33;5.43;;;3.13;;
9761;SDS011;4920;49.594;11.022;2022-12-28T15:13:06;5.60;;;3.30;;
9761;SDS011;4920;49.594;11.022;2022-12-28T15:15:35;6.70;;;3.13;;
9761;SDS011;4920;49.594;11.022;2022-12-28T15:18:03;5.77;;;3.10;;
9761;SDS011;4920;49.594;11.022;2022-12-28T15:20:34;4.13;;;3.13;;
9761;SDS011;4920;49.594;11.022;2022-12-28T15:23:03;5.33;;;3.50;;
9761;SDS011;4920;49.594;11.022;2022-12-28T15:25:32;4.97;;;3.37;;
9761;SDS011;4920;49.594;11.022;2022-12-28T15:28:02;5.97;;;3.20;;
9761;SDS011;4920;49.594;11.022;2022-12-28T15:30:32;5.67;;;3.20;;
9761;SDS011;4920;49.594;11.022;2022-12-28T15:33:01;5.10;;;3.07;;
9761;SDS011;4920;49.594;11.022;2022-12-28T15:35:29;4.10;;;2.97;;
9761;SDS011;4920;49.594;11.022;2022-12-28T15:37:59;3.87;;;2.90;;
9761;SDS011;4920;49.594;11.022;2022-12-28T15:40:28;4.50;;;2.90;;
9761;SDS011;4920;49.594;11.022;2022-12-28T15:42:56;4.60;;;3.10;;
9761;SDS011;4920;49.594;11.022;2022-12-28T15:45:25;4.13;;;2.70;;
9761;SDS011;4920;49.594;11.022;2022-12-28T15:47:55;5.40;;;2.80;;
9761;SDS011;4920;49.594;11.022;2022-12-28T15:50:24;5.40;;;3.33;;